Time;durP1;ratioP1;P1;durP2;ratioP2;P2;SDS_P1;SDS_P2;PMS_P1;PMS_P2;Temp;Humidity;BMP_temperature;BMP_pressure;BME280_temperature;BME280_humidity;BME280_pressure;Samples;Min_cycle;Max_cycle;Signal;HPM_P1;HPM_P2
2023/02/28 00:00:50;;;;;;;9.63;4.10;;;3.70;99.90;;;;;;4996258;28;20037;-72
2023/02/28 00:03:16;;;;;;;10.65;4.57;;;3.70;99.90;;;;;;5023294;28;20088;-73
2023/02/28 00:05:42;;;;;;;10.65;4.43;;;3.70;99.90;;;;;;5005573;28;20065;-72
2023/02/28 00:08:09;;;;;;;9.63;4.50;;;3.70;99.90;;;;;;5019067;28;20058;-72
2023/02/28 00:10:35;;;;;;;10.48;4.78;;;3.80;99.90;;;;;;5041121;28;20725;-72
2023/02/28 00:13:06;;;;;;;8.73;4.70;;;3.70;99.90;;;;;;5025960;28;20096;-72
2023/02/28 00:15:31;;;;;;;;;;;3.70;99.90;;;;;;5023082;28;20054;-72
2023/02/28 00:17:57;;;;;;;6.68;4.47;;;3.70;99.90;;;;;;5017879;28;19931;-72
2023/02/28 00:20:23;;;;;;;8.20;4.32;;;3.70;99.90;;;;;;4995047;28;20042;-72
2023/02/28 00:22:51;;;;;;;8.82;5.35;;;3.70;99.90;;;;;;5041428;28;20132;-73
2023/02/28 00:25:20;;;;;;;10.32;4.72;;;3.80;99.90;;;;;;5004301;28;20122;-73
2023/02/28 00:27:47;;;;;;;8.15;4.63;;;3.80;99.90;;;;;;5018955;28;20053;-73
2023/02/28 00:30:15;;;;;;;9.75;4.20;;;3.80;99.90;;;;;;5009578;28;20041;-73
2023/02/28 00:32:41;;;;;;;8.70;4.45;;;3.80;99.90;;;;;;5015440;28;20439;-72
2023/02/28 00:35:08;;;;;;;8.30;4.63;;;3.80;99.90;;;;;;5019319;28;20056;-72
2023/02/28 00:37:34;;;;;;;9.32;4.60;;;3.80;99.90;;;;;;4993585;28;20045;-72
2023/02/28 00:40:02;;;;;;;13.48;5.60;;;3.80;99.90;;;;;;5012382;28;20088;-71
2023/02/28 00:42:27;;;;;;;12.25;5.32;;;3.80;99.90;;;;;;5018018;28;20442;-74
2023/02/28 00:44:54;;;;;;;12.57;5.70;;;3.80;99.90;;;;;;5019556;28;20312;-72
2023/02/28 00:47:19;;;;;;;8.48;5.47;;;3.80;99.90;;;;;;4989177;28;20214;-71
2023/02/28 00:49:45;;;;;;;10.25;5.20;;;3.90;99.90;;;;;;5033062;28;20119;-72
2023/02/28 00:52:11;;;;;;;10.13;5.43;;;3.80;99.90;;;;;;5019603;28;20068;-72
2023/02/28 00:54:37;;;;;;;9.23;4.70;;;3.80;99.90;;;;;;4993448;28;20504;-73
2023/02/28 00:57:03;;;;;;;8.90;4.75;;;3.80;99.90;;;;;;5022766;28;20061;-73
2023/02/28 00:59:28;;;;;;;10.07;5.43;;;3.80;99.90;;;;;;5009505;28;20044;-72
2023/02/28 01:01:57;;;;;;;10.52;5.55;;;3.80;99.90;;;;;;5026561;28;20071;-72
2023/02/28 01:04:23;;;;;;;6.55;4.75;;;3.80;99.90;;;;;;4989969;28;20041;-72
2023/02/28 01:06:49;;;;;;;12.43;5.38;;;3.80;99.90;;;;;;5015969;28;20062;-73
2023/02/28 01:09:15;;;;;;;10.38;5.00;;;3.80;99.90;;;;;;5029242;28;20540;-73
2023/02/28 01:11:43;;;;;;;8.75;5.57;;;3.90;99.90;;;;;;5020866;28;20049;-72
2023/02/28 01:14:14;;;;;;;9.18;5.85;;;3.80;99.90;;;;;;5010351;28;20566;-72
2023/02/28 01:16:46;;;;;;;9.52;5.07;;;3.90;99.90;;;;;;5013656;28;20037;-74
2023/02/28 01:19:12;;;;;;;12.32;5.30;;;3.80;99.90;;;;;;5000410;28;20064;-73
2023/02/28 01:21:38;;;;;;;11.68;5.72;;;3.80;99.90;;;;;;5018254;28;20045;-72
2023/02/28 01:24:05;;;;;;;8.57;5.40;;;3.80;99.90;;;;;;5012198;28;20037;-72
2023/02/28 01:26:31;;;;;;;9.38;5.10;;;3.80;99.90;;;;;;5037833;28;20077;-72
2023/02/28 01:28:58;;;;;;;10.00;5.40;;;3.80;99.90;;;;;;5022004;28;20679;-72
2023/02/28 01:31:23;;;;;;;11.45;6.40;;;3.80;99.90;;;;;;5016924;28;20053;-71
2023/02/28 01:33:52;;;;;;;11.43;6.20;;;3.80;99.90;;;;;;5018812;28;20092;-72
2023/02/28 01:36:25;;;;;;;11.73;5.95;;;3.80;99.90;;;;;;5011303;28;20520;-72
2023/02/28 01:38:51;;;;;;;11.40;6.20;;;3.80;99.90;;;;;;5023887;28;20607;-72
2023/02/28 01:41:25;;;;;;;12.23;6.60;;;3.80;99.90;;;;;;5020728;28;20041;-73
2023/02/28 01:43:57;;;;;;;11.82;6.15;;;3.80;99.90;;;;;;5021570;28;20046;-72
2023/02/28 01:46:26;;;;;;;10.80;6.10;;;3.80;99.90;;;;;;5014798;28;20419;-73
2023/02/28 01:49:01;;;;;;;9.57;6.40;;;3.70;99.90;;;;;;5033660;28;20405;-73
2023/02/28 01:51:34;;;;;;;9.23;5.68;;;3.80;99.90;;;;;;5032240;28;20064;-72
2023/02/28 01:54:13;;;;;;;12.52;7.35;;;3.70;99.90;;;;;;5003126;28;20492;-73
2023/02/28 01:56:43;;;;;;;11.13;6.68;;;3.70;99.90;;;;;;5018956;28;20389;-72
2023/02/28 01:59:12;;;;;;;11.98;6.53;;;3.70;99.90;;;;;;5014888;28;20091;-72
2023/02/28 02:01:38;;;;;;;9.80;6.43;;;3.70;99.90;;;;;;5024864;28;20136;-72
2023/02/28 02:04:04;;;;;;;9.93;6.30;;;3.70;99.90;;;;;;5018542;28;20124;-72
2023/02/28 02:06:44;;;;;;;13.57;7.43;;;3.70;99.90;;;;;;5014883;28;20467;-73
2023/02/28 02:09:10;;;;;;;10.05;6.40;;;3.70;99.90;;;;;;5022406;28;20509;-72
2023/02/28 02:11:39;;;;;;;11.15;6.35;;;3.70;99.90;;;;;;4988860;28;20046;-72
2023/02/28 02:14:17;;;;;;;9.52;6.07;;;3.60;99.90;;;;;;5032453;28;20064;-72
2023/02/28 02:17:04;;;;;;;9.48;5.85;;;3.70;99.90;;;;;;5034001;28;20061;-72
2023/02/28 02:19:45;;;;;;;10.23;6.10;;;3.70;99.90;;;;;;5020109;28;20132;-73
2023/02/28 02:22:23;;;;;;;11.60;6.15;;;3.70;99.90;;;;;;5031625;28;20053;-73
2023/02/28 02:25:23;;;;;;;8.93;5.97;;;3.60;99.90;;;;;;5011730;28;20069;-72
2023/02/28 02:28:09;;;;;;;9.43;6.53;;;3.60;99.90;;;;;;5030941;28;20491;-73
2023/02/28 02:30:58;;;;;;;10.77;6.75;;;3.60;99.90;;;;;;5019256;28;20460;-73
2023/02/28 02:33:39;;;;;;;12.27;6.65;;;3.60;99.90;;;;;;5014166;28;20081;-72
2023/02/28 02:36:19;;;;;;;9.70;7.07;;;3.60;99.90;;;;;;5005236;28;20045;-73
2023/02/28 02:39:22;;;;;;;11.95;7.53;;;3.60;99.90;;;;;;5005007;28;20627;-73
2023/02/28 02:41:56;;;;;;;9.73;7.07;;;3.70;99.90;;;;;;4991375;28;20103;-72
2023/02/28 02:44:50;;;;;;;9.52;7.07;;;3.60;99.90;;;;;;5009371;28;20171;-73
2023/02/28 02:47:21;;;;;;;11.00;7.38;;;3.60;99.90;;;;;;5013226;28;20056;-73
2023/02/28 02:49:50;;;;;;;8.75;7.10;;;3.60;99.90;;;;;;5021241;28;20049;-73
2023/02/28 02:52:21;;;;;;;8.55;7.07;;;3.60;99.90;;;;;;5025056;28;20046;-73
2023/02/28 02:54:50;;;;;;;10.23;7.47;;;3.60;99.90;;;;;;5016682;28;20385;-75
2023/02/28 02:57:33;;;;;;;11.80;8.02;;;3.50;99.90;;;;;;5021284;28;20049;-73
2023/02/28 03:00:01;;;;;;;12.13;7.78;;;3.60;99.90;;;;;;5024925;28;20627;-73
2023/02/28 03:02:33;;;;;;;12.93;8.10;;;3.40;99.90;;;;;;5019317;28;20107;-73
2023/02/28 03:05:04;;;;;;;12.18;8.43;;;3.40;99.90;;;;;;5002980;28;20088;-73
2023/02/28 03:07:30;;;;;;;11.38;8.07;;;3.40;99.90;;;;;;5019013;28;20512;-73
2023/02/28 03:09:57;;;;;;;12.05;8.27;;;3.40;99.90;;;;;;5019571;28;20047;-73
2023/02/28 03:12:40;;;;;;;13.95;8.80;;;3.30;99.90;;;;;;5017134;28;20057;-74
2023/02/28 03:15:26;;;;;;;11.32;8.38;;;3.30;99.90;;;;;;5021815;28;20548;-73
2023/02/28 03:18:06;;;;;;;10.93;8.20;;;3.30;99.90;;;;;;5005110;28;20054;-74
2023/02/28 03:20:40;;;;;;;10.85;9.20;;;3.30;99.90;;;;;;5030867;28;20049;-75
2023/02/28 03:23:16;;;;;;;11.77;8.32;;;3.30;99.90;;;;;;5007087;28;20045;-72
2023/02/28 03:25:51;;;;;;;15.15;11.18;;;3.30;99.90;;;;;;5020551;28;20080;-75
2023/02/28 03:28:29;;;;;;;14.48;8.95;;;3.20;99.90;;;;;;5022209;28;20132;-75
2023/02/28 03:31:02;;;;;;;14.05;9.75;;;3.20;99.90;;;;;;5038417;28;20077;-74
2023/02/28 03:33:36;;;;;;;15.30;10.23;;;3.20;99.90;;;;;;5009244;28;20143;-73
2023/02/28 03:36:12;;;;;;;12.30;9.35;;;3.20;99.90;;;;;;5011869;28;20742;-74
2023/02/28 03:38:40;;;;;;;16.35;11.25;;;3.20;99.90;;;;;;5015281;28;20492;-74
2023/02/28 03:41:15;;;;;;;14.50;10.70;;;3.20;99.90;;;;;;5008571;28;20046;-75
2023/02/28 03:43:44;;;;;;;13.88;10.32;;;3.20;99.90;;;;;;5007450;28;20509;-75
2023/02/28 03:46:14;;;;;;;15.33;10.70;;;3.20;99.90;;;;;;5016414;28;20761;-74
2023/02/28 03:48:50;;;;;;;12.15;10.82;;;3.20;99.90;;;;;;5014470;28;20292;-74
2023/02/28 03:51:19;;;;;;;15.80;12.18;;;3.20;99.90;;;;;;5026806;28;20125;-75
2023/02/28 03:53:53;;;;;;;15.00;12.40;;;3.20;99.90;;;;;;5024612;28;20397;-74
2023/02/28 03:56:42;;;;;;;17.08;13.40;;;3.20;99.90;;;;;;5015198;28;20108;-74
2023/02/28 03:59:18;;;;;;;20.17;14.48;;;3.20;99.90;;;;;;5014992;28;20049;-74
2023/02/28 04:01:46;;;;;;;19.92;15.13;;;3.30;99.90;;;;;;5014059;28;20136;-74
2023/02/28 04:04:13;;;;;;;17.52;13.77;;;3.10;99.90;;;;;;5014640;28;20127;-74
2023/02/28 04:06:40;;;;;;;24.75;17.85;;;3.10;99.90;;;;;;5016199;28;20543;-74
2023/02/28 04:09:08;;;;;;;17.83;15.02;;;3.10;99.90;;;;;;5007999;28;20356;-74
2023/02/28 04:12:00;;;;;;;16.30;13.90;;;3.10;99.90;;;;;;5011591;28;20038;-74
2023/02/28 04:14:26;;;;;;;22.60;17.15;;;3.00;99.90;;;;;;5000856;28;20053;-72
2023/02/28 04:16:52;;;;;;;22.08;16.02;;;3.10;99.90;;;;;;5001155;28;20054;-73
2023/02/28 04:19:21;;;;;;;23.75;17.55;;;3.20;99.90;;;;;;4984299;28;20050;-75
2023/02/28 04:21:52;;;;;;;23.10;18.80;;;3.10;99.90;;;;;;5005513;28;20084;-74
2023/02/28 04:24:23;;;;;;;19.27;17.00;;;3.10;99.90;;;;;;4997104;28;20081;-74
2023/02/28 04:26:52;;;;;;;20.35;15.82;;;3.10;99.90;;;;;;5017104;28;20496;-74
2023/02/28 04:29:31;;;;;;;20.77;16.30;;;3.10;99.90;;;;;;4997217;28;20038;-74
2023/02/28 04:31:58;;;;;;;22.30;18.02;;;3.10;99.90;;;;;;5014156;28;20443;-74
2023/02/28 04:34:28;;;;;;;23.02;18.77;;;3.00;99.90;;;;;;4994575;28;20038;-74
2023/02/28 04:36:55;;;;;;;29.40;21.77;;;3.00;99.90;;;;;;5001942;28;20444;-74
2023/02/28 04:39:22;;;;;;;23.90;19.17;;;3.00;99.90;;;;;;4999945;28;20555;-74
2023/02/28 04:41:48;;;;;;;21.02;18.50;;;3.00;99.90;;;;;;4987579;28;20475;-74
2023/02/28 04:44:14;;;;;;;24.23;19.92;;;2.90;99.90;;;;;;5011219;28;20049;-74
2023/02/28 04:46:41;;;;;;;28.33;21.50;;;2.90;99.90;;;;;;4987431;28;20493;-74
2023/02/28 04:49:08;;;;;;;26.60;21.90;;;2.90;99.90;;;;;;5010145;28;20511;-74
2023/02/28 04:51:36;;;;;;;21.90;19.00;;;2.90;99.90;;;;;;5005828;28;20129;-73
2023/02/28 04:54:02;;;;;;;30.85;23.25;;;2.90;99.90;;;;;;5004559;28;20041;-72
2023/02/28 04:56:28;;;;;;;27.13;21.60;;;2.90;99.90;;;;;;4997709;28;20049;-73
2023/02/28 04:58:54;;;;;;;52.88;28.17;;;2.90;99.90;;;;;;5000214;28;20659;-73
2023/02/28 05:01:24;;;;;;;27.20;22.27;;;2.90;99.90;;;;;;4999815;28;20062;-73
2023/02/28 05:03:52;;;;;;;40.33;26.30;;;2.90;99.90;;;;;;5009249;28;20046;-73
2023/02/28 05:06:20;;;;;;;34.08;24.90;;;2.90;99.90;;;;;;4976317;28;20132;-72
2023/02/28 05:08:46;;;;;;;31.90;24.00;;;2.90;99.90;;;;;;5012953;28;20058;-73
2023/02/28 05:11:18;;;;;;;24.98;21.15;;;2.90;99.90;;;;;;5008746;28;20119;-73
2023/02/28 05:13:45;;;;;;;35.58;26.77;;;2.90;99.90;;;;;;5016333;28;20064;-73
2023/02/28 05:16:10;;;;;;;38.40;25.23;;;2.90;99.90;;;;;;5005459;28;20511;-73
2023/02/28 05:18:37;;;;;;;44.45;28.42;;;2.80;99.90;;;;;;5018590;28;20041;-73
2023/02/28 05:21:03;;;;;;;38.53;26.38;;;2.80;99.90;;;;;;5022518;28;20497;-73
2023/02/28 05:23:29;;;;;;;57.10;31.37;;;2.80;99.90;;;;;;5010263;28;20064;-73
2023/02/28 05:25:55;;;;;;;49.60;29.30;;;2.80;99.90;;;;;;4989692;28;20052;-73
2023/02/28 05:28:21;;;;;;;46.87;28.60;;;2.80;99.90;;;;;;5004808;28;20122;-73
2023/02/28 05:30:47;;;;;;;43.55;29.67;;;2.80;99.90;;;;;;5017671;28;20202;-72
2023/02/28 05:33:13;;;;;;;33.72;26.00;;;2.80;99.90;;;;;;4978410;28;20042;-73
2023/02/28 05:35:40;;;;;;;49.28;30.17;;;2.80;99.90;;;;;;5006823;28;20134;-73
2023/02/28 05:38:06;;;;;;;31.02;24.15;;;2.80;99.90;;;;;;4999339;28;20516;-71
2023/02/28 05:40:32;;;;;;;37.15;25.88;;;2.70;99.90;;;;;;4997658;28;20551;-73
2023/02/28 05:42:58;;;;;;;33.45;23.45;;;2.70;99.90;;;;;;5004972;28;20046;-72
2023/02/28 05:45:28;;;;;;;25.23;22.08;;;2.70;99.90;;;;;;4984423;28;20049;-72
2023/02/28 05:47:55;;;;;;;31.52;23.95;;;2.70;99.90;;;;;;4997980;28;20085;-72
2023/02/28 05:50:20;;;;;;;30.90;23.50;;;2.70;99.90;;;;;;5010993;28;20083;-71
2023/02/28 05:52:51;;;;;;;28.70;23.00;;;2.70;99.90;;;;;;4984382;28;20077;-72
2023/02/28 05:55:17;;;;;;;31.73;25.48;;;2.70;99.90;;;;;;5005337;28;20049;-72
2023/02/28 05:57:42;;;;;;;47.33;30.30;;;2.60;99.90;;;;;;5005560;28;20061;-73
2023/02/28 06:00:09;;;;;;;42.75;28.13;;;2.60;99.90;;;;;;4995335;28;20081;-72
2023/02/28 06:02:35;;;;;;;32.58;24.48;;;2.60;99.90;;;;;;5009999;28;20042;-72
2023/02/28 06:05:01;;;;;;;37.90;27.77;;;2.60;99.90;;;;;;5003568;28;20416;-72
2023/02/28 06:07:27;;;;;;;49.60;32.53;;;2.60;99.90;;;;;;5003316;28;20053;-73
2023/02/28 06:09:53;;;;;;;43.38;29.63;;;2.60;99.90;;;;;;5015140;28;20290;-72
2023/02/28 06:12:18;;;;;;;42.38;28.10;;;2.60;99.90;;;;;;4989561;28;20121;-72
2023/02/28 06:14:44;;;;;;;38.42;29.55;;;2.60;99.90;;;;;;5037204;28;20065;-72
2023/02/28 06:17:10;;;;;;;68.88;34.90;;;2.70;99.90;;;;;;5005307;28;20049;-71
2023/02/28 06:19:38;;;;;;;58.05;33.40;;;2.60;99.90;;;;;;5016595;28;20030;-74
2023/02/28 06:22:04;;;;;;;61.15;33.13;;;2.60;99.90;;;;;;4981222;28;20518;-74
2023/02/28 06:24:31;;;;;;;49.25;30.45;;;2.60;99.90;;;;;;5005390;28;20045;-73
2023/02/28 06:26:58;;;;;;;66.90;36.53;;;2.60;99.90;;;;;;5027610;28;20053;-74
2023/02/28 06:29:25;;;;;;;37.13;29.03;;;2.50;99.90;;;;;;5015213;28;20493;-72
2023/02/28 06:31:50;;;;;;;36.78;27.48;;;2.50;99.90;;;;;;5006926;28;20046;-72
2023/02/28 06:34:16;;;;;;;50.58;32.33;;;2.50;99.90;;;;;;5010245;28;20099;-72
2023/02/28 06:36:43;;;;;;;64.93;35.80;;;2.60;99.90;;;;;;5000617;28;20066;-73
2023/02/28 06:39:09;;;;;;;34.63;26.13;;;2.50;99.90;;;;;;5008998;28;20056;-72
2023/02/28 06:41:37;;;;;;;30.03;24.60;;;2.50;99.90;;;;;;5006214;28;20160;-73
2023/02/28 06:44:12;;;;;;;37.43;27.07;;;2.50;99.90;;;;;;5026695;28;20050;-72
2023/02/28 06:46:42;;;;;;;39.77;27.87;;;2.60;99.90;;;;;;5004898;28;20498;-72
2023/02/28 06:49:09;;;;;;;45.85;30.58;;;2.60;99.90;;;;;;4994627;28;20129;-73
2023/02/28 06:51:39;;;;;;;51.08;31.65;;;2.60;99.90;;;;;;5010677;28;20118;-73
2023/02/28 06:54:08;;;;;;;39.88;29.00;;;2.60;99.90;;;;;;5014471;28;20504;-73
2023/02/28 06:56:35;;;;;;;48.30;31.70;;;2.60;99.90;;;;;;5007350;28;20572;-73
2023/02/28 06:59:01;;;;;;;49.07;30.50;;;2.60;99.90;;;;;;4986725;28;20042;-72
2023/02/28 07:01:27;;;;;;;45.03;29.17;;;2.70;99.90;;;;;;5016405;28;20038;-72
2023/02/28 07:03:54;;;;;;;48.27;32.47;;;2.60;99.90;;;;;;4991495;28;20056;-73
2023/02/28 07:06:24;;;;;;;38.67;28.90;;;2.60;99.90;;;;;;4970269;28;20041;-72
2023/02/28 07:08:52;;;;;;;48.58;31.88;;;2.60;99.90;;;;;;4994256;28;20050;-72
2023/02/28 07:11:22;;;;;;;41.45;29.75;;;2.60;99.90;;;;;;5017441;28;20054;-72
2023/02/28 07:13:52;;;;;;;42.65;29.98;;;2.60;99.90;;;;;;5008527;28;20131;-72
2023/02/28 07:16:18;;;;;;;53.65;31.00;;;2.60;99.90;;;;;;4998266;28;20045;-72
2023/02/28 07:18:44;;;;;;;37.92;27.08;;;2.70;99.90;;;;;;5009125;28;20736;-72
2023/02/28 07:21:10;;;;;;;28.70;23.60;;;2.60;99.90;;;;;;5010442;28;20050;-72
2023/02/28 07:23:37;;;;;;;39.53;28.42;;;2.60;99.90;;;;;;5003382;28;20094;-73
2023/02/28 07:26:05;;;;;;;39.58;28.20;;;2.70;99.90;;;;;;4992106;28;20143;-72
2023/02/28 07:28:30;;;;;;;42.33;30.63;;;2.70;99.90;;;;;;5010215;28;20088;-72
2023/02/28 07:30:56;;;;;;;36.70;26.42;;;2.70;99.90;;;;;;5011124;28;20091;-72
2023/02/28 07:33:23;;;;;;;35.13;26.25;;;2.70;99.90;;;;;;5004693;28;20088;-72
2023/02/28 07:35:49;;;;;;;35.10;26.70;;;2.70;99.90;;;;;;5011435;28;20493;-72
2023/02/28 07:38:15;;;;;;;40.17;28.02;;;2.70;99.90;;;;;;5006509;28;20049;-72
2023/02/28 07:40:41;;;;;;;40.27;29.37;;;2.70;99.90;;;;;;5006183;28;20076;-72
2023/02/28 07:43:07;;;;;;;28.83;22.45;;;2.70;99.90;;;;;;4999962;28;20054;-72
2023/02/28 07:45:34;;;;;;;29.17;23.85;;;2.70;99.90;;;;;;5017732;28;20042;-73
2023/02/28 07:48:00;;;;;;;36.38;27.35;;;2.70;99.90;;;;;;5011925;28;20046;-72
2023/02/28 07:50:30;;;;;;;31.80;25.13;;;2.70;99.90;;;;;;5002858;28;20081;-72
2023/02/28 07:52:57;;;;;;;34.65;26.65;;;2.80;99.90;;;;;;5010792;28;20088;-73
2023/02/28 07:55:23;;;;;;;28.30;24.13;;;2.80;99.90;;;;;;5031157;28;20057;-73
2023/02/28 07:57:49;;;;;;;37.53;30.15;;;2.80;99.90;;;;;;5003469;28;20381;-73
2023/02/28 08:00:15;;;;;;;37.92;28.67;;;2.80;99.90;;;;;;5003664;28;21048;-72
2023/02/28 08:02:41;;;;;;;26.70;23.23;;;2.80;99.90;;;;;;4989107;28;20501;-72
2023/02/28 08:05:08;;;;;;;27.35;23.08;;;2.80;99.90;;;;;;4999528;28;20096;-73
2023/02/28 08:07:34;;;;;;;28.38;24.25;;;2.80;99.90;;;;;;5011298;28;20037;-73
2023/02/28 08:10:00;;;;;;;28.08;25.08;;;2.90;99.90;;;;;;5021720;28;20401;-73
2023/02/28 08:12:26;;;;;;;35.13;26.07;;;2.90;99.90;;;;;;4987434;28;20042;-72
2023/02/28 08:14:52;;;;;;;28.05;24.67;;;2.90;99.90;;;;;;5014711;28;20076;-72
2023/02/28 08:17:18;;;;;;;26.77;22.83;;;2.90;99.90;;;;;;5003788;28;20124;-72
2023/02/28 08:19:47;;;;;;;24.35;21.70;;;2.90;99.90;;;;;;4998844;28;20136;-73
2023/02/28 08:22:13;;;;;;;37.47;27.80;;;2.90;99.90;;;;;;5018000;28;20081;-73
2023/02/28 08:24:42;;;;;;;31.10;26.13;;;2.90;99.90;;;;;;4999745;28;20075;-72
2023/02/28 08:27:08;;;;;;;24.20;21.67;;;2.90;99.90;;;;;;4987806;28;20065;-73
2023/02/28 08:29:36;;;;;;;29.57;26.07;;;3.00;99.90;;;;;;5000062;28;20042;-72
2023/02/28 08:32:02;;;;;;;23.98;21.48;;;3.10;99.90;;;;;;5013907;28;20497;-75
2023/02/28 08:34:27;;;;;;;24.03;21.40;;;3.20;99.90;;;;;;5002842;28;20037;-75
2023/02/28 08:36:53;;;;;;;25.27;22.55;;;3.20;99.90;;;;;;4999395;28;20056;-75
2023/02/28 08:39:19;;;;;;;24.67;20.98;;;3.30;99.90;;;;;;5006761;28;20092;-72
2023/02/28 08:41:45;;;;;;;25.10;22.40;;;3.30;99.90;;;;;;4977069;28;20439;-73
2023/02/28 08:44:11;;;;;;;25.40;21.83;;;3.30;99.90;;;;;;5006221;28;20045;-73
2023/02/28 08:46:38;;;;;;;25.60;21.80;;;3.30;99.90;;;;;;4996166;28;20041;-73
2023/02/28 08:49:04;;;;;;;25.63;21.23;;;3.30;99.90;;;;;;5021952;28;20081;-73
2023/02/28 08:51:30;;;;;;;21.33;19.02;;;3.40;99.90;;;;;;5004975;28;20088;-73
2023/02/28 08:53:59;;;;;;;21.95;19.65;;;3.40;99.90;;;;;;5003268;28;20053;-73
2023/02/28 08:56:26;;;;;;;23.90;21.25;;;3.40;99.90;;;;;;5008690;28;20478;-73
2023/02/28 08:58:56;;;;;;;21.88;19.33;;;3.40;99.90;;;;;;5012148;28;20050;-73
2023/02/28 09:01:26;;;;;;;21.23;18.88;;;3.50;99.90;;;;;;5016762;28;20084;-72
2023/02/28 09:03:53;;;;;;;21.17;17.70;;;3.50;99.90;;;;;;5002949;28;20034;-72
2023/02/28 09:06:22;;;;;;;19.73;17.70;;;3.60;99.90;;;;;;5003581;28;20052;-72
2023/02/28 09:08:47;;;;;;;19.92;17.08;;;3.70;99.90;;;;;;5016563;28;20045;-72
2023/02/28 09:11:13;;;;;;;18.23;16.15;;;3.70;99.90;;;;;;5012553;28;20054;-74
2023/02/28 09:13:40;;;;;;;19.30;17.33;;;3.80;99.90;;;;;;5010537;28;20497;-74
2023/02/28 09:16:11;;;;;;;20.65;18.20;;;3.80;99.90;;;;;;5017990;28;20238;-74
2023/02/28 09:18:38;;;;;;;18.75;15.15;;;3.90;99.90;;;;;;5019365;28;20116;-74
2023/02/28 09:21:10;;;;;;;16.38;14.68;;;4.00;99.90;;;;;;5007673;28;20488;-72
2023/02/28 09:23:38;;;;;;;19.23;15.80;;;4.10;99.90;;;;;;5000903;28;20052;-72
2023/02/28 09:26:04;;;;;;;16.13;14.52;;;4.10;99.90;;;;;;4997022;28;20095;-73
2023/02/28 09:28:30;;;;;;;15.98;14.38;;;4.20;99.90;;;;;;5009266;28;20044;-73
2023/02/28 09:30:58;;;;;;;16.38;14.77;;;4.10;99.90;;;;;;5012832;28;20148;-72
2023/02/28 09:33:26;;;;;;;17.52;14.13;;;4.10;99.90;;;;;;5012703;28;20054;-72
2023/02/28 09:35:59;;;;;;;14.60;12.90;;;4.20;99.90;;;;;;5008943;28;20719;-72
2023/02/28 09:38:25;;;;;;;15.13;13.52;;;4.30;99.90;;;;;;5012101;28;20064;-72
2023/02/28 09:40:55;;;;;;;14.23;12.20;;;4.40;99.90;;;;;;5000877;28;20057;-72
2023/02/28 09:43:25;;;;;;;13.07;11.68;;;4.50;99.90;;;;;;5011536;28;20559;-72
2023/02/28 09:46:01;;;;;;;13.10;11.85;;;4.60;99.90;;;;;;4996177;28;20042;-72
2023/02/28 09:48:43;;;;;;;14.88;12.50;;;4.70;99.90;;;;;;4997040;28;20057;-72
2023/02/28 09:51:27;;;;;;;12.85;8.48;;;4.80;99.90;;;;;;5021254;28;20141;-72
2023/02/28 09:53:53;;;;;;;12.45;9.95;;;4.90;99.90;;;;;;5017019;28;20049;-72
2023/02/28 09:56:33;;;;;;;11.40;9.35;;;5.00;99.90;;;;;;4999247;28;20054;-73
2023/02/28 09:59:10;;;;;;;9.82;6.95;;;5.00;99.90;;;;;;5007392;28;20045;-73
2023/02/28 10:01:51;;;;;;;9.00;7.38;;;5.20;99.90;;;;;;5011207;28;20056;-73
2023/02/28 10:04:26;;;;;;;9.05;7.57;;;5.20;99.90;;;;;;5006669;28;20072;-73
2023/02/28 10:06:53;;;;;;;9.60;8.18;;;5.20;99.90;;;;;;5009863;28;20483;-72
2023/02/28 10:09:25;;;;;;;11.52;9.43;;;5.30;99.90;;;;;;5030859;28;20518;-72
2023/02/28 10:11:53;;;;;;;9.60;8.52;;;5.30;99.90;;;;;;5012603;28;20501;-74
2023/02/28 10:14:22;;;;;;;9.57;8.55;;;5.40;99.90;;;;;;5004476;28;20092;-75
2023/02/28 10:16:51;;;;;;;9.70;8.32;;;5.50;99.90;;;;;;5013409;28;20037;-72
2023/02/28 10:19:32;;;;;;;10.13;9.10;;;5.50;99.90;;;;;;5004424;28;20462;-73
2023/02/28 10:22:19;;;;;;;11.20;8.75;;;5.60;99.90;;;;;;5008171;28;20489;-73
2023/02/28 10:24:51;;;;;;;10.07;8.25;;;5.60;99.90;;;;;;5008337;28;20053;-73
2023/02/28 10:27:29;;;;;;;12.43;8.90;;;5.50;99.90;;;;;;5014527;28;20067;-72
2023/02/28 10:30:05;;;;;;;10.95;8.70;;;5.50;99.90;;;;;;5019674;28;20056;-72
2023/02/28 10:32:35;;;;;;;10.82;8.35;;;5.50;99.90;;;;;;5004689;28;20128;-73
2023/02/28 10:35:17;;;;;;;9.98;8.95;;;5.40;99.90;;;;;;5013186;28;20240;-75
2023/02/28 10:37:46;;;;;;;10.50;9.10;;;5.30;99.90;;;;;;5020493;28;20108;-75
2023/02/28 10:40:18;;;;;;;10.15;9.07;;;5.30;99.90;;;;;;4995955;28;20484;-74
2023/02/28 10:42:55;;;;;;;13.68;10.48;;;5.30;99.90;;;;;;5019242;28;20541;-73
2023/02/28 10:45:21;;;;;;;13.20;10.35;;;5.30;99.90;;;;;;5006258;28;20048;-73
2023/02/28 10:48:00;;;;;;;11.10;9.90;;;5.40;99.90;;;;;;5003973;28;20045;-73
2023/02/28 10:50:46;;;;;;;11.20;9.15;;;5.50;99.90;;;;;;5000221;28;20062;-73
2023/02/28 10:53:27;;;;;;;12.20;8.68;;;5.70;99.90;;;;;;5013769;28;20053;-73
2023/02/28 10:56:03;;;;;;;10.18;9.02;;;5.80;99.90;;;;;;5015678;28;20058;-73
2023/02/28 10:58:54;;;;;;;10.00;8.65;;;5.90;99.90;;;;;;5014604;28;20116;-73
2023/02/28 11:01:25;;;;;;;13.02;9.35;;;6.00;99.90;;;;;;5001547;28;20292;-73
2023/02/28 11:03:52;;;;;;;10.57;9.45;;;6.00;99.90;;;;;;5011232;28;20124;-72
2023/02/28 11:06:20;;;;;;;8.82;7.93;;;6.10;99.90;;;;;;5018580;28;20061;-73
2023/02/28 11:08:52;;;;;;;9.15;6.75;;;6.20;99.90;;;;;;5020699;28;20572;-74
2023/02/28 11:11:19;;;;;;;7.78;6.97;;;6.30;99.90;;;;;;5037903;28;20050;-73
2023/02/28 11:13:49;;;;;;;9.82;6.88;;;6.30;99.90;;;;;;5022937;28;20202;-73
2023/02/28 11:16:16;;;;;;;9.50;7.78;;;6.20;99.90;;;;;;5008591;28;20095;-72
2023/02/28 11:18:46;;;;;;;11.45;8.65;;;6.30;99.90;;;;;;5022660;28;20045;-72
2023/02/28 11:21:19;;;;;;;10.73;7.90;;;6.30;99.90;;;;;;5002908;28;20139;-72
2023/02/28 11:23:45;;;;;;;9.90;7.57;;;6.40;99.90;;;;;;5025197;28;20057;-72
2023/02/28 11:26:31;;;;;;;9.40;7.93;;;6.40;99.90;;;;;;4990822;28;20461;-72
2023/02/28 11:29:18;;;;;;;10.40;8.75;;;6.40;99.90;;;;;;5031741;28;20049;-73
2023/02/28 11:32:18;;;;;;;8.85;7.25;;;6.40;99.90;;;;;;5021727;28;20492;-72
2023/02/28 11:34:45;;;;;;;10.00;8.75;;;6.50;99.90;;;;;;5034627;28;20652;-72
2023/02/28 11:37:17;;;;;;;8.65;7.75;;;6.60;99.90;;;;;;4998984;28;20095;-72
2023/02/28 11:39:45;;;;;;;10.98;8.38;;;6.60;99.90;;;;;;5013541;28;20084;-72
2023/02/28 11:42:32;;;;;;;9.70;7.70;;;6.60;99.90;;;;;;5041543;28;20140;-71
2023/02/28 11:45:15;;;;;;;11.27;8.40;;;6.50;99.90;;;;;;5014638;28;20050;-72
2023/02/28 11:47:55;;;;;;;10.50;8.07;;;6.40;99.90;;;;;;5020834;28;20140;-73
2023/02/28 11:50:39;;;;;;;9.55;7.68;;;6.30;99.90;;;;;;5010515;28;20053;-73
2023/02/28 11:54:02;;;;;;;9.20;7.85;;;6.30;99.90;;;;;;5039090;28;20149;-73
2023/02/28 11:56:32;;;;;;;9.23;7.10;;;6.30;99.90;;;;;;4979914;28;20090;-72
2023/02/28 11:59:18;;;;;;;7.35;6.47;;;6.20;99.90;;;;;;4952662;28;20042;-73
2023/02/28 12:02:18;;;;;;;8.52;6.57;;;6.30;99.90;;;;;;5009972;28;20154;-72
2023/02/28 12:05:07;;;;;;;8.35;6.47;;;6.30;99.90;;;;;;5022027;28;20041;-73
2023/02/28 12:08:06;;;;;;;9.57;6.38;;;6.30;99.90;;;;;;5002412;28;20077;-73
2023/02/28 12:11:00;;;;;;;8.32;6.50;;;6.40;99.90;;;;;;5021247;28;20095;-73
2023/02/28 12:13:47;;;;;;;7.32;5.90;;;6.50;99.90;;;;;;5025755;28;20053;-73
2023/02/28 12:16:29;;;;;;;6.88;5.85;;;6.60;99.90;;;;;;5037442;28;20049;-71
2023/02/28 12:19:12;;;;;;;7.93;5.38;;;6.70;99.90;;;;;;5004920;28;20102;-72
2023/02/28 12:21:53;;;;;;;7.15;5.03;;;6.80;99.90;;;;;;5021183;28;20111;-73
2023/02/28 12:24:24;;;;;;;8.80;7.07;;;6.90;99.90;;;;;;5017128;28;20081;-72
2023/02/28 12:26:53;;;;;;;13.75;11.30;;;6.90;99.90;;;;;;5015078;28;20046;-72
2023/02/28 12:29:30;;;;;;;7.90;5.45;;;7.00;99.90;;;;;;5037207;28;20136;-73
2023/02/28 12:32:04;;;;;;;7.45;5.28;;;7.20;99.90;;;;;;5023419;28;20615;-76
2023/02/28 12:34:41;;;;;;;7.72;5.47;;;7.30;99.90;;;;;;5008046;28;20383;-74
2023/02/28 12:37:14;;;;;;;5.43;4.60;;;7.40;99.40;;;;;;5030312;28;20050;-75
2023/02/28 12:39:55;;;;;;;6.25;4.25;;;7.40;98.90;;;;;;5009833;28;20038;-74
2023/02/28 12:42:30;;;;;;;7.57;6.50;;;7.40;97.60;;;;;;5018401;28;20052;-72
2023/02/28 12:45:04;;;;;;;8.98;6.40;;;7.50;98.50;;;;;;5019408;28;20045;-72
2023/02/28 12:47:40;;;;;;;7.85;6.57;;;7.60;99.10;;;;;;5035837;28;20064;-73
2023/02/28 12:50:11;;;;;;;6.93;4.55;;;7.70;99.30;;;;;;4996128;28;20068;-73
2023/02/28 12:53:05;;;;;;;7.20;4.63;;;7.80;96.70;;;;;;5020731;28;20487;-72
2023/02/28 12:55:48;;;;;;;5.30;4.03;;;7.90;95.20;;;;;;5030898;28;20041;-73
2023/02/28 12:58:39;;;;;;;5.60;4.47;;;7.90;93.50;;;;;;5023553;28;20491;-73
2023/02/28 13:01:34;;;;;;;5.82;4.30;;;7.90;92.50;;;;;;5035851;28;20069;-73
2023/02/28 13:04:24;;;;;;;5.50;4.78;;;7.90;92.00;;;;;;5023444;28;20057;-74
2023/02/28 13:07:21;;;;;;;6.95;4.55;;;7.80;90.50;;;;;;5017411;28;20034;-75